createdAt,value
2017-12-10T00:00:40.835Z,69.65
2017-12-10T00:03:12.127Z,69.99
2017-12-10T00:05:44.883Z,70.09
2017-12-10T00:08:17.430Z,70.39
2017-12-10T00:10:49.018Z,70.51
2017-12-10T00:13:20.992Z,70.43
2017-12-10T00:15:53.648Z,70.46
2017-12-10T00:18:26.224Z,70.46
2017-12-10T00:21:02.684Z,70.34
2017-12-10T00:23:35.651Z,70.13
2017-12-10T00:26:15.383Z,70.03
2017-12-10T00:28:48.073Z,70.20
2017-12-10T00:31:22.357Z,70.16
2017-12-10T00:33:58.573Z,70.28
2017-12-10T00:36:30.495Z,70.06
2017-12-10T00:39:01.954Z,69.99
2017-12-10T00:41:34.362Z,69.98
2017-12-10T00:44:09.764Z,69.97
2017-12-10T00:46:42.112Z,70.06
2017-12-10T00:49:15.642Z,70.01
2017-12-10T00:51:48.127Z,69.84
2017-12-10T00:54:23.076Z,69.76
2017-12-10T00:56:55.159Z,69.61
2017-12-10T00:59:27.795Z,69.95
2017-12-10T01:01:59.801Z,70.06
2017-12-10T01:04:32.765Z,70.25
2017-12-10T01:07:06.870Z,70.15
2017-12-10T01:09:38.275Z,70.19
2017-12-10T01:12:10.507Z,70.31
2017-12-10T01:14:43.500Z,70.25
2017-12-10T01:17:14.891Z,70.11
2017-12-10T01:19:47.433Z,70.10
2017-12-10T01:22:19.552Z,69.97
2017-12-10T01:24:51.277Z,70.09
2017-12-10T01:27:23.059Z,69.90
2017-12-10T01:29:55.163Z,69.77
2017-12-10T01:32:26.646Z,69.94
2017-12-10T01:34:58.326Z,69.76
2017-12-10T01:37:29.715Z,69.68
2017-12-10T01:40:01.078Z,69.51
2017-12-10T01:42:32.615Z,69.89
2017-12-10T01:45:04.264Z,70.20
2017-12-10T01:47:36.131Z,70.38
2017-12-10T01:50:08.622Z,69.91
2017-12-10T01:52:40.066Z,70.09
2017-12-10T01:55:11.801Z,70.02
2017-12-10T01:57:44.611Z,70.11
2017-12-10T02:00:18.197Z,70.42
2017-12-10T02:02:49.927Z,70.55
2017-12-10T02:05:21.298Z,70.99
2017-12-10T02:07:54.005Z,71.08
2017-12-10T02:10:25.559Z,71.28
2017-12-10T02:12:57.018Z,71.61
2017-12-10T02:15:28.694Z,71.69
2017-12-10T02:18:00.116Z,71.63
2017-12-10T02:20:31.493Z,71.53
2017-12-10T02:23:03.047Z,71.73
2017-12-10T02:25:34.633Z,71.65
2017-12-10T02:28:07.898Z,71.92
2017-12-10T02:30:39.299Z,71.78
2017-12-10T02:33:10.759Z,71.47
2017-12-10T02:35:42.413Z,71.59
2017-12-10T02:38:15.130Z,71.83
2017-12-10T02:40:46.541Z,71.63
2017-12-10T02:43:17.931Z,71.98
2017-12-10T02:45:49.304Z,72.01
2017-12-10T02:48:20.962Z,71.96
2017-12-10T02:50:52.476Z,71.82
2017-12-10T02:53:23.929Z,71.91
2017-12-10T02:55:55.640Z,72.00
2017-12-10T02:58:27.043Z,71.92
2017-12-10T03:00:58.449Z,72.18
2017-12-10T03:03:29.851Z,72.28
2017-12-10T03:06:01.355Z,72.45
2017-12-10T03:08:37.569Z,72.53
2017-12-10T03:11:08.952Z,72.67
2017-12-10T03:13:41.451Z,72.79
2017-12-10T03:16:14.992Z,72.80
2017-12-10T03:18:47.982Z,72.98
2017-12-10T03:21:19.355Z,73.17
2017-12-10T03:23:51.042Z,73.15
2017-12-10T03:26:22.477Z,72.93
2017-12-10T03:28:54.158Z,72.86
2017-12-10T03:31:25.608Z,72.92
2017-12-10T03:33:56.979Z,72.84
2017-12-10T03:36:28.675Z,72.60
2017-12-10T03:39:01.376Z,72.31
2017-12-10T03:41:33.013Z,72.21
2017-12-10T03:44:05.878Z,71.85
2017-12-10T03:46:41.869Z,71.67
2017-12-10T03:49:17.258Z,71.46
2017-12-10T03:51:49.650Z,71.47
2017-12-10T03:54:22.411Z,71.67
2017-12-10T03:56:53.729Z,71.52
2017-12-10T03:59:25.335Z,71.37
2017-12-10T04:01:56.972Z,71.53
2017-12-10T04:04:28.563Z,71.92
2017-12-10T04:07:00.256Z,71.75
2017-12-10T04:09:31.975Z,72.13
2017-12-10T04:12:05.410Z,72.55
2017-12-10T04:14:37.269Z,72.55
2017-12-10T04:17:09.015Z,72.79
2017-12-10T04:19:40.396Z,72.87
2017-12-10T04:22:12.711Z,72.97
2017-12-10T04:24:44.538Z,73.14
2017-12-10T04:27:15.910Z,73.17
2017-12-10T04:29:47.429Z,73.32
2017-12-10T04:32:19.728Z,73.91
2017-12-10T04:34:51.123Z,74.29
2017-12-10T04:37:22.781Z,74.41
2017-12-10T04:39:54.183Z,74.04
2017-12-10T04:42:25.601Z,74.42
2017-12-10T04:44:57.231Z,74.31
2017-12-10T04:47:28.629Z,74.53
2017-12-10T04:50:00.052Z,74.87
2017-12-10T04:52:31.692Z,74.49
2017-12-10T04:55:04.219Z,74.09
2017-12-10T04:57:35.675Z,74.02
2017-12-10T05:00:07.815Z,74.13
2017-12-10T05:02:39.216Z,74.36
2017-12-10T05:05:10.558Z,74.35
2017-12-10T05:07:43.332Z,73.90
2017-12-10T05:10:16.738Z,73.88
2017-12-10T05:12:49.113Z,73.86
2017-12-10T05:15:20.980Z,73.72
2017-12-10T05:17:52.472Z,73.90
2017-12-10T05:20:24.196Z,73.72
2017-12-10T05:22:55.598Z,73.85
2017-12-10T05:25:27.827Z,73.87
2017-12-10T05:27:59.487Z,74.16
2017-12-10T05:30:30.911Z,73.95
2017-12-10T05:33:02.400Z,74.06
2017-12-10T05:35:34.056Z,74.08
2017-12-10T05:38:06.411Z,74.19
2017-12-10T05:40:38.075Z,74.06
2017-12-10T05:43:09.416Z,73.77
2017-12-10T05:45:40.815Z,73.56
2017-12-10T05:48:12.608Z,73.46
2017-12-10T05:50:45.243Z,73.44
2017-12-10T05:53:16.619Z,73.20
2017-12-10T05:55:48.080Z,73.27
2017-12-10T05:58:19.827Z,73.03
2017-12-10T06:00:51.284Z,73.43
2017-12-10T06:03:22.676Z,73.96
2017-12-10T06:05:54.353Z,74.10
2017-12-10T06:08:25.731Z,74.65
2017-12-10T06:10:57.098Z,75.07
2017-12-10T06:13:28.654Z,75.50
2017-12-10T06:16:00.054Z,76.02
2017-12-10T06:18:31.766Z,76.18
2017-12-10T06:21:03.335Z,76.18
2017-12-10T06:23:35.018Z,76.25
2017-12-10T06:26:07.579Z,76.34
2017-12-10T06:28:38.975Z,76.49
2017-12-10T06:31:10.363Z,76.18
2017-12-10T06:33:42.961Z,75.80
2017-12-10T06:36:16.534Z,75.64
2017-12-10T06:38:49.071Z,75.33
2017-12-10T06:41:20.554Z,75.12
2017-12-10T06:43:52.510Z,74.85
2017-12-10T06:46:23.892Z,74.36
2017-12-10T06:48:55.598Z,73.88
2017-12-10T06:51:26.948Z,73.56
2017-12-10T06:53:58.371Z,73.53
2017-12-10T06:56:30.122Z,73.23
2017-12-10T06:59:01.630Z,73.32
2017-12-10T07:01:32.999Z,73.10
2017-12-10T07:04:06.007Z,72.34
2017-12-10T07:06:37.492Z,72.43
2017-12-10T07:09:09.170Z,72.16
2017-12-10T07:11:40.548Z,72.08
2017-12-10T07:14:11.943Z,71.92
2017-12-10T07:16:44.770Z,71.39
2017-12-10T07:19:16.175Z,71.28
2017-12-10T07:21:48.663Z,70.84
2017-12-10T07:24:20.247Z,71.05
2017-12-10T07:26:52.146Z,70.92
2017-12-10T07:29:23.891Z,70.93
2017-12-10T07:31:55.561Z,70.69
2017-12-10T07:34:27.215Z,70.44
2017-12-10T07:36:58.979Z,70.07
2017-12-10T07:39:30.558Z,69.91
2017-12-10T07:42:05.021Z,69.35
2017-12-10T07:44:36.372Z,69.13
2017-12-10T07:47:07.843Z,68.57
2017-12-10T07:49:39.517Z,68.21
2017-12-10T07:52:11.812Z,67.78
2017-12-10T07:54:43.195Z,67.36
2017-12-10T07:57:15.034Z,67.76
2017-12-10T07:59:46.468Z,67.49
2017-12-10T08:02:18.127Z,67.76
2017-12-10T08:04:50.090Z,67.36
2017-12-10T08:07:21.775Z,67.49
2017-12-10T08:09:53.535Z,67.09
2017-12-10T08:12:24.951Z,66.65
2017-12-10T08:14:57.507Z,66.76
2017-12-10T08:17:29.279Z,66.50
2017-12-10T08:20:00.782Z,66.21
2017-12-10T08:22:32.395Z,65.94
2017-12-10T08:25:04.094Z,65.52
2017-12-10T08:27:35.516Z,65.57
2017-12-10T08:30:07.463Z,64.86
2017-12-10T08:32:39.101Z,65.09
2017-12-10T08:35:10.459Z,64.80
2017-12-10T08:37:42.453Z,64.54
2017-12-10T08:40:15.248Z,64.82
2017-12-10T08:42:47.104Z,64.59
2017-12-10T08:45:18.624Z,64.31
2017-12-10T08:47:50.579Z,64.16
2017-12-10T08:50:22.287Z,63.82
2017-12-10T08:52:53.671Z,63.58
2017-12-10T08:55:25.319Z,63.39
2017-12-10T08:57:56.782Z,63.40
2017-12-10T09:00:28.195Z,63.35
2017-12-10T09:02:59.896Z,62.91
2017-12-10T09:05:31.285Z,62.71
2017-12-10T09:08:03.835Z,62.42
2017-12-10T09:10:35.504Z,62.41
2017-12-10T09:13:08.029Z,61.96
2017-12-10T09:15:40.463Z,62.32
2017-12-10T09:18:12.164Z,61.90
2017-12-10T09:20:44.875Z,61.91
2017-12-10T09:23:16.830Z,61.73
2017-12-10T09:25:49.292Z,61.22
2017-12-10T09:28:21.269Z,61.04
2017-12-10T09:30:53.532Z,61.60
2017-12-10T09:33:24.889Z,61.36
2017-12-10T09:35:57.544Z,61.67
2017-12-10T09:38:29.587Z,61.02
2017-12-10T09:41:07.685Z,61.18
2017-12-10T09:43:40.702Z,61.30
2017-12-10T09:46:13.607Z,61.20
2017-12-10T09:48:46.619Z,61.07
2017-12-10T09:51:18.045Z,61.49
2017-12-10T09:53:50.915Z,60.93
2017-12-10T09:56:22.399Z,61.24
2017-12-10T09:58:54.768Z,61.21
2017-12-10T10:01:26.206Z,60.63
2017-12-10T10:03:57.830Z,60.42
2017-12-10T10:06:29.536Z,60.78
2017-12-10T10:09:01.475Z,61.13
2017-12-10T10:11:33.353Z,61.72
2017-12-10T10:14:10.984Z,62.48
2017-12-10T10:16:43.417Z,63.03
2017-12-10T10:19:15.126Z,63.53
2017-12-10T10:21:46.974Z,65.07
2017-12-10T10:24:19.625Z,67.31
2017-12-10T10:26:50.983Z,70.34
2017-12-10T10:29:22.656Z,73.52
2017-12-10T10:31:55.374Z,76.30
2017-12-10T10:34:27.332Z,78.54
2017-12-10T10:36:58.689Z,80.09
2017-12-10T10:39:30.404Z,81.22
2017-12-10T10:42:04.303Z,81.88
2017-12-10T10:44:35.826Z,83.39
2017-12-10T10:47:07.464Z,83.10
2017-12-10T10:49:40.436Z,83.69
2017-12-10T10:52:12.244Z,83.96
2017-12-10T10:54:44.041Z,84.89
2017-12-10T10:57:15.431Z,84.63
2017-12-10T10:59:47.221Z,84.66
2017-12-10T11:02:25.366Z,84.80
2017-12-10T11:04:56.853Z,84.99
2017-12-10T11:07:28.406Z,85.47
2017-12-10T11:10:00.582Z,85.27
2017-12-10T11:12:31.998Z,85.18
2017-12-10T11:15:03.719Z,86.04
2017-12-10T11:17:35.480Z,85.77
2017-12-10T11:20:07.353Z,86.43
2017-12-10T11:22:39.346Z,85.89
2017-12-10T11:25:10.822Z,85.75
2017-12-10T11:27:43.572Z,86.03
2017-12-10T11:30:17.286Z,85.85
2017-12-10T11:32:50.054Z,85.68
2017-12-10T11:35:21.468Z,86.23
2017-12-10T11:37:53.214Z,86.70
2017-12-10T11:40:24.932Z,87.29
2017-12-10T11:42:56.910Z,87.62
2017-12-10T11:45:28.310Z,87.81
2017-12-10T11:47:59.715Z,88.29
2017-12-10T11:50:31.396Z,88.84
2017-12-10T11:53:03.917Z,88.34
2017-12-10T11:55:35.476Z,88.86
2017-12-10T11:58:12.816Z,89.39
2017-12-10T12:00:44.787Z,88.96
2017-12-10T12:03:16.635Z,89.20
2017-12-10T12:05:48.066Z,89.01
2017-12-10T12:08:20.647Z,88.62
2017-12-10T12:10:52.711Z,88.78
2017-12-10T12:13:24.251Z,88.33
2017-12-10T12:15:55.693Z,87.87
2017-12-10T12:18:27.668Z,87.65
2017-12-10T12:20:59.209Z,87.33
2017-12-10T12:23:30.560Z,87.25
2017-12-10T12:26:04.261Z,87.51
2017-12-10T12:28:35.874Z,87.84
2017-12-10T12:31:07.780Z,87.82
2017-12-10T12:33:40.354Z,87.74
2017-12-10T12:36:16.232Z,87.50
2017-12-10T12:38:47.698Z,87.60
2017-12-10T12:41:20.490Z,87.34
2017-12-10T12:43:52.199Z,87.41
2017-12-10T12:46:24.348Z,87.69
2017-12-10T12:48:59.323Z,87.46
2017-12-10T12:51:35.298Z,87.39
2017-12-10T12:54:14.561Z,87.88
2017-12-10T12:56:51.985Z,87.29
2017-12-10T12:59:23.542Z,86.83
2017-12-10T13:01:55.154Z,86.78
2017-12-10T13:04:27.097Z,87.05
2017-12-10T13:06:58.595Z,86.73
2017-12-10T13:09:30.544Z,86.84
2017-12-10T13:12:03.230Z,86.10
2017-12-10T13:14:34.723Z,86.15
2017-12-10T13:17:09.770Z,86.50
2017-12-10T13:19:53.199Z,86.26
2017-12-10T13:22:25.564Z,86.25
2017-12-10T13:24:57.940Z,86.55
2017-12-10T13:27:29.284Z,86.71
2017-12-10T13:30:04.192Z,86.42
2017-12-10T13:32:35.805Z,86.70
2017-12-10T13:35:07.460Z,86.81
2017-12-10T13:37:40.756Z,86.64
2017-12-10T13:40:16.863Z,87.03
2017-12-10T13:42:52.930Z,86.95
2017-12-10T13:45:24.789Z,87.26
2017-12-10T13:47:56.194Z,86.64
2017-12-10T13:50:28.305Z,86.83
2017-12-10T13:53:07.364Z,86.66
2017-12-10T13:55:45.395Z,86.40
2017-12-10T13:58:18.428Z,86.93
2017-12-10T14:00:49.888Z,86.92
2017-12-10T14:03:21.428Z,86.92
2017-12-10T14:05:54.524Z,87.47
2017-12-10T14:08:25.933Z,86.98
2017-12-10T14:10:57.629Z,86.51
2017-12-10T14:13:29.444Z,86.85
2017-12-10T14:16:04.129Z,86.58
2017-12-10T14:18:36.275Z,86.76
2017-12-10T14:21:07.917Z,86.38
2017-12-10T14:23:40.530Z,86.39
2017-12-10T14:26:16.058Z,86.16
2017-12-10T14:28:47.776Z,86.58
2017-12-10T14:31:19.247Z,86.58
2017-12-10T14:33:50.739Z,86.92
2017-12-10T14:36:23.525Z,87.14
2017-12-10T14:38:55.067Z,87.04
2017-12-10T14:41:26.532Z,87.36
2017-12-10T14:43:59.295Z,87.14
2017-12-10T14:46:30.664Z,87.16
2017-12-10T14:49:02.631Z,87.25
2017-12-10T14:51:34.035Z,86.98
2017-12-10T14:54:08.847Z,87.23
2017-12-10T14:56:40.229Z,87.50
2017-12-10T14:59:11.633Z,87.32
2017-12-10T15:01:43.291Z,87.06
2017-12-10T15:04:16.162Z,87.11
2017-12-10T15:06:47.673Z,86.95
2017-12-10T15:09:19.492Z,86.86
2017-12-10T15:11:51.099Z,86.89
2017-12-10T15:14:23.257Z,86.85
2017-12-10T15:16:54.657Z,86.85
2017-12-10T15:19:26.097Z,86.93
2017-12-10T15:21:57.772Z,87.26
2017-12-10T15:24:29.235Z,87.31
2017-12-10T15:27:00.594Z,87.68
2017-12-10T15:29:32.447Z,88.25
2017-12-10T15:32:05.630Z,88.69
2017-12-10T15:34:37.634Z,89.09
2017-12-10T15:37:10.262Z,88.48
2017-12-10T15:39:41.728Z,88.23
2017-12-10T15:42:16.377Z,88.27
2017-12-10T15:44:49.107Z,88.27
2017-12-10T15:47:20.436Z,87.99
2017-12-10T15:49:52.165Z,87.73
2017-12-10T15:52:23.614Z,87.64
2017-12-10T15:54:55.048Z,87.94
2017-12-10T15:57:26.582Z,88.04
2017-12-10T15:59:58.318Z,88.11
2017-12-10T16:02:30.910Z,88.22
2017-12-10T16:05:02.588Z,88.27
2017-12-10T16:07:34.398Z,88.37
2017-12-10T16:10:08.799Z,88.61
2017-12-10T16:12:40.553Z,88.71
2017-12-10T16:15:13.002Z,88.57
2017-12-10T16:17:44.483Z,88.70
2017-12-10T16:20:16.356Z,88.77
2017-12-10T16:22:48.981Z,88.71
2017-12-10T16:25:20.677Z,88.50
2017-12-10T16:27:53.677Z,88.45
2017-12-10T16:30:25.305Z,88.50
2017-12-10T16:32:56.988Z,88.60
2017-12-10T16:35:29.088Z,88.67
2017-12-10T16:38:06.135Z,88.51
2017-12-10T16:40:37.943Z,88.53
2017-12-10T16:43:09.581Z,88.49
2017-12-10T16:45:42.977Z,88.47
2017-12-10T16:48:14.702Z,88.36
2017-12-10T16:50:46.402Z,88.11
2017-12-10T16:53:19.895Z,88.13
2017-12-10T16:55:52.163Z,88.13
2017-12-10T16:58:24.872Z,87.69
2017-12-10T17:00:56.963Z,87.37
2017-12-10T17:03:28.777Z,87.01
2017-12-10T17:06:01.316Z,86.90
2017-12-10T17:08:33.996Z,86.61
2017-12-10T17:11:06.346Z,86.20
2017-12-10T17:16:35.641Z,84.92
2017-12-10T17:19:12.811Z,84.38
2017-12-10T17:21:45.290Z,83.96
2017-12-10T17:24:18.289Z,84.04
2017-12-10T17:26:49.703Z,83.81
2017-12-10T17:29:21.417Z,83.66
2017-12-10T17:31:52.881Z,83.57
2017-12-10T17:34:24.527Z,83.27
2017-12-10T17:36:56.008Z,82.88
2017-12-10T17:42:23.183Z,82.51
2017-12-10T17:44:57.594Z,82.52
2017-12-10T17:47:28.986Z,82.37
2017-12-10T17:50:01.079Z,82.13
2017-12-10T17:52:33.320Z,81.88
2017-12-10T17:55:05.582Z,81.87
2017-12-10T17:57:38.416Z,81.45
2017-12-10T18:00:12.655Z,81.57
2017-12-10T18:02:46.232Z,81.33
2017-12-10T18:05:18.412Z,81.15
2017-12-10T18:07:50.643Z,81.10
2017-12-10T18:10:24.081Z,80.72
2017-12-10T18:12:55.771Z,80.31
2017-12-10T18:15:27.187Z,80.39
2017-12-10T18:17:58.811Z,80.20
2017-12-10T18:20:30.328Z,80.12
2017-12-10T18:23:02.473Z,79.90
2017-12-10T18:25:33.946Z,79.53
2017-12-10T18:28:07.573Z,79.39
2017-12-10T18:30:40.351Z,79.20
2017-12-10T18:33:11.958Z,79.21
2017-12-10T18:35:43.740Z,78.99
2017-12-10T18:38:17.419Z,78.95
2017-12-10T18:40:48.904Z,79.21
2017-12-10T18:43:20.696Z,79.10
2017-12-10T18:45:52.558Z,78.90
2017-12-10T18:48:23.979Z,78.84
2017-12-10T18:54:05.002Z,78.78
2017-12-10T19:02:24.946Z,78.45
2017-12-10T19:04:56.030Z,78.11
2017-12-10T19:07:27.325Z,78.24
2017-12-10T19:09:58.589Z,78.32
2017-12-10T19:12:29.740Z,78.60
2017-12-10T19:15:02.970Z,78.49
2017-12-10T19:17:34.024Z,78.37
2017-12-10T19:20:06.720Z,78.64
2017-12-10T19:22:39.113Z,78.56
2017-12-10T19:25:10.287Z,78.62
2017-12-10T19:27:42.200Z,78.57
2017-12-10T19:30:15.501Z,78.43
2017-12-10T19:32:47.144Z,78.44
2017-12-10T19:35:18.543Z,78.63
2017-12-10T19:40:45.163Z,78.37
2017-12-10T19:43:16.943Z,78.36
2017-12-10T19:45:48.235Z,78.62
2017-12-10T19:48:21.917Z,78.65
2017-12-10T19:50:53.065Z,78.75
2017-12-10T19:53:24.204Z,78.74
2017-12-10T19:55:55.974Z,78.68
2017-12-10T19:58:27.166Z,78.55
2017-12-10T20:00:59.344Z,78.50
2017-12-10T20:03:30.833Z,78.52
2017-12-10T20:06:03.096Z,78.61
2017-12-10T20:08:34.337Z,78.57
2017-12-10T20:11:05.590Z,78.33
2017-12-10T20:16:15.867Z,78.36
2017-12-10T20:18:47.495Z,78.04
2017-12-10T20:21:19.068Z,78.17
2017-12-10T20:23:51.217Z,78.16
2017-12-10T20:26:22.639Z,77.88
2017-12-10T20:28:54.712Z,77.87
2017-12-10T20:31:25.893Z,77.62
2017-12-10T20:33:57.219Z,77.38
2017-12-10T20:36:33.520Z,77.06
2017-12-10T20:39:10.248Z,76.84
2017-12-10T20:41:43.340Z,76.49
2017-12-10T20:44:14.611Z,76.39
2017-12-10T20:46:46.734Z,75.91
2017-12-10T20:49:18.053Z,75.85
2017-12-10T20:51:49.225Z,75.91
2017-12-10T20:54:23.563Z,75.74
2017-12-10T20:56:54.817Z,75.08
2017-12-10T20:59:26.193Z,75.15
2017-12-10T21:01:57.193Z,75.30
2017-12-10T21:04:28.205Z,74.87
2017-12-10T21:06:59.237Z,75.09
2017-12-10T21:09:30.505Z,74.97
2017-12-10T21:12:03.529Z,74.83
2017-12-10T21:14:34.533Z,74.67
2017-12-10T21:17:05.805Z,74.83
2017-12-10T21:19:36.941Z,74.17
2017-12-10T21:22:09.118Z,74.12
2017-12-10T21:24:41.398Z,74.02
2017-12-10T21:27:12.437Z,73.94
2017-12-10T21:29:43.894Z,73.68
2017-12-10T21:32:15.765Z,73.58
2017-12-10T21:34:46.794Z,73.94
2017-12-10T21:37:18.185Z,74.10
2017-12-10T21:39:49.285Z,73.89
2017-12-10T21:42:20.629Z,74.30
2017-12-10T21:44:53.735Z,74.29
2017-12-10T21:47:24.750Z,74.14
2017-12-10T21:49:58.431Z,73.91
2017-12-10T21:52:29.528Z,73.50
2017-12-10T21:55:02.523Z,73.48
2017-12-10T21:57:33.753Z,73.30
2017-12-10T22:00:07.315Z,73.11
2017-12-10T22:02:39.235Z,73.13
2017-12-10T22:05:11.551Z,73.02
2017-12-10T22:07:45.596Z,72.90
2017-12-10T22:10:18.634Z,72.61
2017-12-10T22:12:50.825Z,72.95
2017-12-10T22:15:42.811Z,72.72
2017-12-10T22:18:17.873Z,72.59
2017-12-10T22:27:19.163Z,72.72
2017-12-10T22:29:51.545Z,73.07
2017-12-10T22:32:22.612Z,73.14
2017-12-10T22:34:55.392Z,73.33
2017-12-10T22:37:29.255Z,73.41
2017-12-10T22:40:05.287Z,73.35
2017-12-10T22:42:37.369Z,73.27
2017-12-10T22:48:24.248Z,73.23
2017-12-10T22:50:58.876Z,73.15
2017-12-10T22:53:33.265Z,73.36
2017-12-10T22:56:11.460Z,73.34
2017-12-10T22:58:46.384Z,73.39
2017-12-10T23:01:19.541Z,73.53
2017-12-10T23:03:52.058Z,73.70
2017-12-10T23:06:24.603Z,73.78
2017-12-10T23:08:56.587Z,74.23
2017-12-10T23:11:29.735Z,74.71
2017-12-10T23:14:08.516Z,74.86
2017-12-10T23:16:40.409Z,75.25
2017-12-10T23:19:12.660Z,75.56
2017-12-10T23:21:49.921Z,76.12
2017-12-10T23:24:24.142Z,76.68
2017-12-10T23:27:04.901Z,77.32
2017-12-10T23:29:38.817Z,77.88
2017-12-10T23:32:10.621Z,78.07
2017-12-10T23:34:44.734Z,78.59
2017-12-10T23:37:17.081Z,78.79
2017-12-10T23:39:49.662Z,78.89
2017-12-10T23:42:22.034Z,79.15
2017-12-10T23:44:56.557Z,79.36
2017-12-10T23:47:27.552Z,79.38
2017-12-10T23:49:59.269Z,79.61
2017-12-10T23:52:30.949Z,79.87
2017-12-10T23:55:03.580Z,80.01
2017-12-10T23:57:36.307Z,79.90
